createdAt,value
2018-11-03T00:01:55.823Z,12.10
2018-11-03T00:04:30.929Z,11.57
2018-11-03T00:07:07.559Z,11.70
2018-11-03T00:09:45.395Z,11.57
2018-11-03T00:12:20.627Z,13.37
2018-11-03T00:14:56.041Z,12.53
2018-11-03T00:17:31.204Z,12.73
2018-11-03T00:20:07.627Z,12.07
2018-11-03T00:22:41.470Z,13.27
2018-11-03T00:25:16.679Z,12.80
2018-11-03T00:27:51.672Z,13.53
2018-11-03T00:30:26.685Z,13.20
2018-11-03T00:33:01.979Z,12.83
2018-11-03T00:35:37.015Z,12.30
2018-11-03T00:38:12.112Z,11.87
2018-11-03T00:40:46.923Z,11.70
2018-11-03T00:43:22.024Z,12.50
2018-11-03T00:45:57.424Z,12.53
2018-11-03T00:48:32.564Z,12.37
2018-11-03T00:51:07.842Z,12.60
2018-11-03T00:53:43.486Z,14.00
2018-11-03T00:56:18.864Z,13.43
2018-11-03T00:58:53.821Z,13.90
2018-11-03T01:01:28.792Z,12.93
2018-11-03T01:04:04.685Z,13.43
2018-11-03T01:06:39.972Z,13.70
2018-11-03T01:09:15.026Z,13.40
2018-11-03T01:11:50.263Z,13.90
2018-11-03T01:14:25.127Z,14.73
2018-11-03T01:17:01.269Z,14.00
2018-11-03T01:19:36.422Z,14.40
2018-11-03T01:22:11.425Z,15.30
2018-11-03T01:24:46.394Z,14.43
2018-11-03T01:27:21.877Z,16.97
2018-11-03T01:29:57.513Z,14.20
2018-11-03T01:32:33.401Z,15.23
2018-11-03T01:35:09.215Z,15.20
2018-11-03T01:37:44.237Z,16.43
2018-11-03T01:40:19.898Z,15.57
2018-11-03T01:42:54.797Z,17.10
2018-11-03T01:45:30.226Z,14.80
2018-11-03T01:48:06.225Z,15.30
2018-11-03T01:50:41.694Z,14.30
2018-11-03T01:53:16.380Z,13.20
2018-11-03T01:55:51.480Z,13.10
2018-11-03T01:58:26.790Z,13.17
2018-11-03T02:01:02.361Z,13.00
2018-11-03T02:03:37.402Z,14.13
2018-11-03T02:06:12.410Z,14.30
2018-11-03T02:08:48.218Z,14.03
2018-11-03T02:11:23.309Z,13.00
2018-11-03T02:14:00.765Z,13.30
2018-11-03T02:16:36.316Z,12.70
2018-11-03T02:19:11.831Z,11.60
2018-11-03T02:21:47.402Z,11.40
2018-11-03T02:24:22.480Z,12.90
2018-11-03T07:09:31.127Z,14.30
2018-11-03T07:12:06.796Z,14.30
2018-11-03T07:14:41.816Z,14.57
2018-11-03T07:20:16.623Z,14.70
2018-11-03T07:22:51.879Z,13.90
2018-11-03T07:25:27.032Z,13.97
2018-11-03T07:28:02.858Z,14.40
2018-11-03T07:30:38.147Z,14.67
2018-11-03T07:33:12.938Z,13.90
2018-11-03T07:35:48.247Z,15.53
2018-11-03T07:38:23.920Z,14.43
2018-11-03T07:40:59.329Z,16.03
2018-11-03T07:43:34.771Z,14.40
2018-11-03T07:46:12.716Z,16.03
2018-11-03T07:48:48.434Z,15.57
2018-11-03T07:51:24.520Z,16.00
2018-11-03T07:53:59.440Z,14.47
2018-11-03T07:56:34.570Z,15.07
2018-11-03T07:59:09.677Z,14.80
2018-11-03T08:01:44.572Z,15.83
2018-11-03T08:04:20.479Z,14.97
2018-11-03T08:06:50.138Z,15.20
2018-11-03T08:09:25.457Z,16.40
2018-11-03T08:12:00.383Z,16.43
2018-11-03T08:14:35.446Z,16.30
2018-11-03T08:17:10.839Z,17.00
2018-11-03T08:19:46.545Z,16.07
2018-11-03T08:22:21.914Z,15.90
2018-11-03T08:24:57.658Z,16.40
2018-11-03T08:27:32.978Z,15.70
2018-11-03T08:30:10.986Z,16.87
2018-11-03T08:32:46.505Z,16.30
2018-11-03T08:35:21.636Z,18.40
2018-11-03T08:37:56.628Z,17.40
2018-11-03T08:40:26.748Z,18.53
2018-11-03T08:43:02.374Z,18.30
2018-11-03T08:45:39.691Z,17.60
2018-11-03T08:48:15.044Z,19.50
2018-11-03T08:50:50.173Z,17.80
2018-11-03T08:53:25.570Z,19.40
2018-11-03T08:55:55.319Z,19.73
2018-11-03T08:58:30.699Z,19.07
2018-11-03T09:01:06.485Z,19.67
2018-11-03T09:03:42.004Z,21.07
2018-11-03T09:06:17.804Z,21.03
2018-11-03T09:08:53.826Z,19.90
2018-11-03T09:11:28.877Z,20.50
2018-11-03T09:14:04.504Z,21.80
2018-11-03T09:16:39.497Z,20.87
2018-11-03T09:19:14.684Z,21.30
2018-11-03T09:21:50.176Z,21.50
2018-11-03T09:24:25.388Z,20.70
2018-11-03T09:27:01.234Z,22.63
2018-11-03T09:29:36.400Z,22.77
2018-11-03T09:32:12.338Z,22.50
2018-11-03T09:34:47.562Z,20.70
2018-11-03T09:37:23.035Z,19.90
2018-11-03T09:39:57.840Z,20.23
2018-11-03T09:42:32.921Z,21.73
2018-11-03T09:45:09.559Z,22.27
2018-11-03T09:47:45.146Z,21.40
2018-11-03T09:50:22.833Z,24.00
2018-11-03T09:52:58.173Z,24.00
2018-11-03T09:55:33.367Z,23.60
2018-11-03T09:58:09.181Z,26.53
2018-11-03T10:00:45.042Z,24.20
2018-11-03T10:03:20.143Z,25.70
2018-11-03T10:05:55.275Z,24.93
2018-11-03T10:08:30.295Z,25.07
2018-11-03T10:11:05.489Z,26.30
2018-11-03T10:13:40.283Z,27.33
2018-11-03T10:16:15.949Z,27.23
2018-11-03T10:18:51.533Z,26.20
2018-11-03T10:21:26.812Z,27.50
2018-11-03T10:24:02.617Z,25.63
2018-11-03T10:26:38.552Z,24.90
2018-11-03T10:29:13.738Z,24.20
2018-11-03T10:31:48.852Z,24.50
2018-11-03T10:34:23.856Z,23.73
2018-11-03T10:36:58.793Z,24.50
2018-11-03T10:39:34.106Z,23.50
2018-11-03T10:42:09.157Z,22.40
2018-11-03T10:44:44.556Z,20.90
2018-11-03T10:47:19.278Z,20.60
2018-11-03T10:49:54.161Z,20.00
2018-11-03T10:52:29.356Z,20.50
2018-11-03T10:55:05.889Z,19.57
2018-11-03T10:57:42.004Z,20.60
2018-11-03T11:00:24.626Z,21.07
2018-11-03T11:03:05.078Z,20.50
2018-11-03T11:05:44.435Z,21.37
2018-11-03T11:08:25.452Z,20.00
2018-11-03T11:11:05.857Z,19.40
2018-11-03T11:13:42.228Z,20.40
2018-11-03T11:16:18.831Z,19.70
2018-11-03T11:18:53.932Z,21.73
2018-11-03T11:21:29.274Z,22.17
2018-11-03T11:24:05.245Z,24.37
2018-11-03T11:26:40.201Z,23.50
2018-11-03T11:29:15.244Z,21.37
2018-11-03T11:31:50.762Z,22.60
2018-11-03T11:34:25.970Z,22.43
2018-11-03T11:37:01.351Z,24.87
2018-11-03T11:39:36.817Z,25.67
2018-11-03T11:42:11.951Z,25.20
2018-11-03T11:44:47.731Z,27.50
2018-11-03T11:47:22.922Z,26.80
2018-11-03T11:49:58.159Z,26.50
2018-11-03T11:52:33.408Z,26.37
2018-11-03T11:55:08.504Z,24.80
2018-11-03T11:57:43.846Z,24.40
2018-11-03T12:00:19.342Z,25.33
2018-11-03T12:02:54.663Z,24.63
2018-11-03T12:05:29.576Z,23.70
2018-11-03T12:08:04.694Z,27.87
2018-11-03T12:10:39.857Z,26.47
2018-11-03T12:13:15.030Z,24.97
2018-11-03T12:15:50.494Z,25.93
2018-11-03T12:18:25.664Z,24.53
2018-11-03T12:21:00.627Z,22.63
2018-11-03T12:23:35.671Z,20.47
2018-11-03T12:26:11.361Z,21.40
2018-11-03T12:28:47.238Z,21.90
2018-11-03T12:31:22.272Z,24.90
2018-11-03T12:33:57.510Z,23.40
2018-11-03T12:36:33.413Z,21.80
2018-11-03T12:39:09.297Z,19.13
2018-11-03T12:41:44.536Z,20.97
2018-11-03T12:44:19.807Z,21.23
2018-11-03T12:46:54.643Z,19.20
2018-11-03T12:49:32.688Z,20.83
2018-11-03T12:52:07.893Z,19.90
2018-11-03T12:54:44.015Z,20.33
2018-11-03T12:57:19.808Z,18.73
2018-11-03T12:59:55.120Z,19.93
2018-11-03T13:02:30.034Z,18.37
2018-11-03T13:05:06.166Z,19.33
2018-11-03T13:07:42.373Z,18.90
2018-11-03T13:10:17.360Z,18.00
2018-11-03T13:12:52.375Z,17.37
2018-11-03T13:15:27.447Z,16.90
2018-11-03T13:18:02.527Z,14.73
2018-11-03T13:20:37.505Z,14.97
2018-11-03T13:23:12.466Z,15.00
2018-11-03T13:25:47.621Z,14.93
2018-11-03T13:28:22.479Z,14.27
2018-11-03T13:30:57.313Z,13.00
2018-11-03T13:33:32.082Z,15.40
2018-11-03T13:36:07.894Z,16.10
2018-11-03T13:38:42.999Z,14.23
2018-11-03T13:41:17.866Z,14.90
2018-11-03T13:43:53.316Z,14.20
2018-11-03T13:46:28.464Z,13.17
2018-11-03T13:49:03.623Z,13.10
2018-11-03T13:51:38.833Z,12.90
2018-11-03T13:54:13.937Z,12.37
2018-11-03T13:56:49.451Z,12.60
2018-11-03T13:59:26.454Z,11.80
2018-11-03T14:02:01.253Z,11.27
2018-11-03T14:04:36.510Z,11.17
2018-11-03T14:07:11.584Z,10.50
2018-11-03T14:09:46.827Z,10.13
2018-11-03T14:12:22.340Z,10.80
2018-11-03T14:14:57.706Z,11.33
2018-11-03T14:17:33.043Z,10.80
2018-11-03T14:20:10.111Z,10.37
2018-11-03T14:22:45.716Z,9.67
2018-11-03T14:25:20.949Z,9.80
2018-11-03T14:27:55.933Z,10.27
2018-11-03T14:30:31.201Z,10.40
2018-11-03T14:33:06.628Z,8.93
2018-11-03T14:35:41.930Z,9.60
2018-11-03T14:38:16.941Z,9.07
2018-11-03T14:40:52.558Z,9.40
2018-11-03T14:43:28.051Z,9.60
2018-11-03T14:46:03.725Z,8.63
2018-11-03T14:48:38.828Z,9.33
2018-11-03T14:51:14.014Z,9.17
2018-11-03T14:53:50.047Z,9.13
2018-11-03T14:56:25.144Z,9.60
2018-11-03T14:59:00.690Z,9.40
2018-11-03T15:01:36.067Z,10.67
2018-11-03T15:04:11.884Z,10.00
2018-11-03T15:06:47.646Z,9.13
2018-11-03T15:09:22.789Z,10.10
2018-11-03T15:11:58.225Z,10.17
2018-11-03T15:14:33.882Z,11.27
2018-11-03T15:17:09.304Z,12.40
2018-11-03T15:19:44.661Z,11.10
2018-11-03T15:22:19.867Z,11.03
2018-11-03T15:24:55.059Z,11.23
2018-11-03T15:27:30.622Z,10.50
2018-11-03T15:30:07.223Z,10.20
2018-11-03T15:32:42.703Z,11.10
2018-11-03T15:35:17.790Z,9.73
2018-11-03T15:37:53.000Z,10.83
2018-11-03T15:40:27.893Z,11.40
2018-11-03T15:43:03.472Z,11.50
2018-11-03T15:45:39.055Z,11.33
2018-11-03T15:48:15.074Z,10.20
2018-11-03T15:50:51.183Z,10.20
2018-11-03T15:53:26.533Z,10.37
2018-11-03T15:56:01.695Z,11.20
2018-11-03T15:58:37.411Z,10.90
2018-11-03T16:01:12.487Z,11.50
2018-11-03T16:03:47.611Z,13.23
2018-11-03T16:06:22.884Z,12.03
2018-11-03T16:08:58.691Z,11.90
2018-11-03T16:11:33.941Z,10.87
2018-11-03T16:14:09.650Z,12.27
2018-11-03T16:16:45.295Z,18.00
2018-11-03T16:19:20.792Z,24.30
2018-11-03T16:21:55.936Z,17.40
2018-11-03T16:24:32.106Z,13.67
2018-11-03T16:27:07.625Z,13.23
2018-11-03T16:29:42.668Z,11.50
2018-11-03T16:32:17.929Z,11.23
2018-11-03T16:34:53.242Z,11.00
2018-11-03T16:37:27.996Z,11.30
2018-11-03T16:40:03.448Z,11.20
2018-11-03T16:42:38.831Z,11.30
2018-11-03T16:45:15.708Z,10.90
2018-11-03T16:47:50.693Z,11.33
2018-11-03T16:50:26.015Z,11.23
2018-11-03T16:53:01.574Z,12.10
2018-11-03T16:55:36.768Z,11.57
2018-11-03T16:58:11.831Z,11.03
2018-11-03T17:00:46.919Z,12.37
2018-11-03T17:03:22.105Z,12.13
2018-11-03T17:05:57.261Z,11.77
2018-11-03T17:08:32.315Z,12.00
2018-11-03T17:11:08.213Z,12.63
2018-11-03T17:13:43.116Z,13.93
2018-11-03T17:16:18.136Z,13.10
2018-11-03T17:18:53.347Z,12.77
2018-11-03T17:21:28.614Z,12.67
2018-11-03T17:24:03.761Z,12.37
2018-11-03T17:26:38.824Z,12.80
2018-11-03T17:29:13.614Z,12.53
2018-11-03T17:31:48.521Z,13.30
2018-11-03T17:34:23.476Z,12.43
2018-11-03T17:36:58.534Z,17.47
2018-11-03T17:39:33.927Z,16.60
2018-11-03T17:42:09.985Z,16.70
2018-11-03T17:44:44.948Z,14.40
2018-11-03T17:47:20.395Z,15.03
2018-11-03T17:49:55.541Z,15.07
2018-11-03T17:52:30.571Z,14.87
2018-11-03T17:55:06.703Z,15.20
2018-11-03T17:57:42.588Z,17.17
2018-11-03T18:00:17.999Z,17.20
2018-11-03T18:02:53.431Z,18.47
2018-11-03T18:05:29.421Z,18.37
2018-11-03T18:08:04.986Z,20.20
2018-11-03T18:10:40.878Z,23.27
2018-11-03T18:13:16.802Z,25.27
2018-11-03T18:15:52.079Z,24.07
2018-11-03T18:18:27.473Z,25.00
2018-11-03T18:21:02.987Z,23.53
2018-11-03T18:23:38.953Z,22.90
2018-11-03T18:26:14.095Z,22.27
2018-11-03T18:28:49.167Z,23.37
2018-11-03T18:31:24.108Z,21.57
2018-11-03T18:33:59.336Z,22.80
2018-11-03T18:36:34.568Z,22.30
2018-11-03T18:39:10.211Z,21.00
2018-11-03T18:41:45.246Z,21.87
2018-11-03T18:44:20.539Z,20.13
2018-11-03T18:46:55.533Z,21.87
2018-11-03T18:49:31.066Z,21.87
2018-11-03T18:52:06.902Z,19.70
2018-11-03T18:54:42.118Z,20.97
2018-11-03T18:57:17.038Z,17.83
2018-11-03T18:59:52.072Z,18.40
2018-11-03T19:02:27.731Z,18.50
2018-11-03T19:05:02.774Z,17.17
2018-11-03T19:07:38.237Z,14.70
2018-11-03T19:10:13.357Z,15.40
2018-11-03T19:12:48.423Z,17.10
2018-11-03T19:15:24.485Z,16.93
2018-11-03T19:17:59.765Z,15.80
2018-11-03T19:20:35.029Z,15.70
2018-11-03T19:23:10.530Z,15.23
2018-11-03T19:25:46.876Z,16.03
2018-11-03T19:28:22.550Z,14.30
2018-11-03T19:30:57.639Z,14.13
2018-11-03T19:33:33.375Z,14.50
2018-11-03T19:36:08.716Z,13.87
2018-11-03T19:38:43.998Z,12.67
2018-11-03T19:41:21.058Z,12.50
2018-11-03T19:43:56.883Z,13.57
2018-11-03T19:46:32.313Z,12.60
2018-11-03T19:49:07.873Z,13.93
2018-11-03T19:51:43.253Z,13.67
2018-11-03T19:54:19.353Z,12.57
2018-11-03T19:56:54.602Z,12.50
2018-11-03T19:59:29.701Z,12.33
2018-11-03T20:02:04.982Z,13.30
2018-11-03T20:04:40.547Z,12.83
2018-11-03T20:07:15.761Z,11.47
2018-11-03T20:09:50.605Z,12.80
2018-11-03T20:12:25.951Z,12.00
2018-11-03T20:15:01.307Z,12.63
2018-11-03T20:17:36.722Z,13.03
2018-11-03T20:20:12.963Z,14.23
2018-11-03T20:22:47.806Z,13.97
2018-11-03T20:25:23.298Z,14.27
2018-11-03T20:27:58.388Z,13.90
2018-11-03T20:30:34.229Z,14.37
2018-11-03T20:33:09.209Z,14.90
2018-11-03T20:35:44.347Z,14.67
2018-11-03T20:38:19.578Z,13.70
2018-11-03T20:40:54.631Z,14.00
2018-11-03T20:43:29.605Z,13.70
2018-11-03T20:46:06.197Z,14.50
2018-11-03T20:48:41.278Z,13.97
2018-11-03T20:51:16.372Z,13.03
2018-11-03T20:53:51.922Z,13.33
2018-11-03T20:56:26.900Z,13.83
2018-11-03T20:59:02.006Z,14.23
2018-11-03T21:01:37.224Z,13.60
2018-11-03T21:04:12.446Z,14.20
2018-11-03T21:06:50.605Z,13.17
2018-11-03T21:09:25.902Z,14.10
2018-11-03T21:12:01.368Z,12.90
2018-11-03T21:14:36.912Z,12.23
2018-11-03T21:17:12.123Z,12.37
2018-11-03T21:19:47.355Z,14.10
2018-11-03T21:22:22.535Z,12.73
2018-11-03T21:24:57.628Z,12.30
2018-11-03T21:27:32.975Z,13.20
2018-11-03T21:30:09.547Z,13.07
2018-11-03T21:32:44.842Z,13.27
2018-11-03T21:35:20.363Z,12.60
2018-11-03T21:37:55.300Z,13.20
2018-11-03T21:40:31.864Z,13.93
2018-11-03T21:43:07.119Z,12.60
2018-11-03T21:45:42.222Z,12.90
2018-11-03T21:48:17.694Z,12.00
2018-11-03T21:50:52.833Z,12.93
2018-11-03T21:53:27.892Z,11.80
2018-11-03T21:56:03.346Z,11.07
2018-11-03T21:58:39.474Z,11.00
2018-11-03T22:01:14.655Z,10.87
2018-11-03T22:03:49.777Z,11.00
2018-11-03T22:06:25.316Z,10.60
2018-11-03T22:09:00.621Z,12.33
2018-11-03T22:11:36.261Z,11.40
2018-11-03T22:14:11.446Z,11.90
2018-11-03T22:16:46.425Z,11.23
2018-11-03T22:19:21.543Z,11.80
2018-11-03T22:21:56.594Z,11.70
2018-11-03T22:24:31.896Z,11.90
2018-11-03T22:27:07.021Z,12.33
2018-11-03T22:29:42.141Z,11.97
2018-11-03T22:32:17.392Z,10.63
2018-11-03T22:34:52.151Z,12.50
2018-11-03T22:37:27.407Z,11.80
2018-11-03T22:40:02.403Z,12.73
2018-11-03T22:42:37.669Z,12.37
2018-11-03T22:45:12.850Z,11.97
2018-11-03T22:47:48.039Z,12.33
2018-11-03T22:50:23.342Z,12.80
2018-11-03T22:52:58.230Z,12.10
2018-11-03T22:55:34.218Z,11.83
2018-11-03T22:58:09.050Z,13.20
2018-11-03T23:00:49.445Z,12.70
2018-11-03T23:03:24.942Z,12.63
2018-11-03T23:05:59.985Z,13.20
2018-11-03T23:08:34.924Z,12.80
2018-11-03T23:11:10.171Z,12.17
2018-11-03T23:13:45.822Z,12.03
2018-11-03T23:16:21.327Z,12.20
2018-11-03T23:18:56.335Z,12.10
2018-11-03T23:21:31.475Z,12.20
2018-11-03T23:24:07.630Z,12.73
2018-11-03T23:26:42.473Z,12.77
2018-11-03T23:29:18.304Z,14.50
2018-11-03T23:31:53.514Z,13.30
2018-11-03T23:34:28.572Z,12.50
2018-11-03T23:37:03.851Z,13.27
2018-11-03T23:39:38.802Z,14.30
2018-11-03T23:42:13.726Z,13.30
2018-11-03T23:44:48.920Z,14.00
2018-11-03T23:47:24.113Z,13.20
2018-11-03T23:50:02.404Z,13.03
2018-11-03T23:52:37.179Z,13.00
2018-11-03T23:55:12.379Z,15.10
2018-11-03T23:57:47.409Z,13.13
